createdAt,value
2023-03-29T00:00:54.134Z,45.90
2023-03-29T00:06:04.913Z,45.95
2023-03-29T00:11:09.571Z,46.93
2023-03-29T00:16:15.179Z,46.41
2023-03-29T00:21:19.382Z,45.76
2023-03-29T00:26:24.911Z,45.83
2023-03-29T00:31:31.925Z,45.25
2023-03-29T00:36:40.263Z,45.22
2023-03-29T00:41:45.997Z,45.00
2023-03-29T00:46:51.585Z,45.52
2023-03-29T00:51:56.029Z,44.97
2023-03-29T00:57:04.162Z,44.64
2023-03-29T01:02:10.601Z,45.74
2023-03-29T01:07:21.850Z,44.94
2023-03-29T01:12:30.785Z,44.35
2023-03-29T01:17:36.306Z,43.79
2023-03-29T01:22:51.453Z,43.04
2023-03-29T01:28:04.900Z,42.80
2023-03-29T01:33:15.303Z,43.37
2023-03-29T01:38:24.645Z,43.51
2023-03-29T01:43:36.296Z,43.72
2023-03-29T01:48:49.250Z,43.78
2023-03-29T01:53:59.775Z,44.14
2023-03-29T01:59:09.819Z,44.24
2023-03-29T02:04:16.131Z,44.15
2023-03-29T02:09:20.319Z,43.85
2023-03-29T02:14:28.932Z,44.34
2023-03-29T02:19:33.368Z,44.28
2023-03-29T02:24:40.966Z,44.26
2023-03-29T02:29:48.247Z,43.75
2023-03-29T02:34:57.930Z,43.75
2023-03-29T02:40:08.089Z,43.46
2023-03-29T02:45:21.973Z,43.84
2023-03-29T02:50:29.020Z,43.86
2023-03-29T02:55:36.737Z,44.20
2023-03-29T03:00:46.965Z,44.85
2023-03-29T03:05:53.178Z,45.62
2023-03-29T03:10:58.436Z,45.07
2023-03-29T03:16:04.833Z,45.10
2023-03-29T03:21:10.332Z,45.51
2023-03-29T03:26:15.454Z,47.58
2023-03-29T03:31:22.662Z,46.60
2023-03-29T03:36:49.531Z,46.85
2023-03-29T03:41:53.602Z,55.88
2023-03-29T03:46:59.537Z,50.93
2023-03-29T03:52:03.767Z,47.59
2023-03-29T03:57:08.867Z,55.21
2023-03-29T04:02:23.618Z,56.09
2023-03-29T04:07:28.800Z,55.77
2023-03-29T04:13:08.423Z,59.74
2023-03-29T04:18:27.185Z,59.78
2023-03-29T04:29:27.866Z,55.93
2023-03-29T04:34:45.941Z,51.32
2023-03-29T04:39:52.553Z,48.40
2023-03-29T04:44:57.820Z,47.30
2023-03-29T04:50:19.658Z,47.45
2023-03-29T05:01:19.012Z,43.40
2023-03-29T05:06:33.714Z,43.22
2023-03-29T05:11:39.818Z,50.87
2023-03-29T05:22:14.802Z,59.10
2023-03-29T05:27:19.299Z,61.14
2023-03-29T05:32:38.384Z,60.41
2023-03-29T05:43:17.392Z,56.84
2023-03-29T05:48:24.230Z,44.11
2023-03-29T05:53:33.408Z,40.76
2023-03-29T05:58:39.972Z,39.92
2023-03-29T06:03:47.653Z,42.04
2023-03-29T06:14:42.780Z,38.47
2023-03-29T06:20:06.376Z,43.10
2023-03-29T06:25:12.593Z,38.21
2023-03-29T06:30:22.208Z,35.15
2023-03-29T06:35:30.362Z,34.43
2023-03-29T06:40:44.975Z,35.54
2023-03-29T06:45:50.433Z,38.85
2023-03-29T06:51:14.429Z,35.12
2023-03-29T06:56:23.376Z,34.34
2023-03-29T07:01:39.105Z,33.76
2023-03-29T07:07:04.260Z,33.95
2023-03-29T07:12:14.249Z,33.92
2023-03-29T07:17:19.341Z,33.74
2023-03-29T07:22:24.052Z,33.29
2023-03-29T07:27:35.133Z,32.15
2023-03-29T07:32:40.253Z,32.24
2023-03-29T07:38:03.525Z,31.94
2023-03-29T07:43:11.240Z,30.63
2023-03-29T07:48:17.930Z,31.08
2023-03-29T07:53:36.476Z,30.47
2023-03-29T07:58:52.032Z,29.21
2023-03-29T08:03:57.231Z,28.43
2023-03-29T08:14:43.743Z,26.56
2023-03-29T08:19:53.432Z,27.03
2023-03-29T08:25:00.547Z,28.60
2023-03-29T08:30:12.659Z,28.12
2023-03-29T08:35:17.502Z,28.72
2023-03-29T08:40:44.331Z,27.01
2023-03-29T08:46:05.458Z,27.55
2023-03-29T08:51:21.676Z,27.83
2023-03-29T08:56:30.314Z,28.56
2023-03-29T09:02:16.762Z,29.09
2023-03-29T09:07:26.470Z,30.31
2023-03-29T09:12:43.730Z,29.61
2023-03-29T09:18:00.583Z,28.83
2023-03-29T09:23:24.184Z,28.79
2023-03-29T09:28:56.138Z,28.52
2023-03-29T09:34:14.383Z,28.65
2023-03-29T09:39:35.435Z,27.99
2023-03-29T09:44:51.758Z,28.06
2023-03-29T09:50:19.839Z,27.78
2023-03-29T09:55:40.879Z,26.06
2023-03-29T10:00:53.786Z,25.46
2023-03-29T10:06:05.317Z,23.89
2023-03-29T10:11:16.372Z,23.08
2023-03-29T10:16:23.708Z,21.63
2023-03-29T10:21:31.147Z,22.68
2023-03-29T10:26:39.062Z,19.51
2023-03-29T10:31:43.418Z,19.43
2023-03-29T10:36:55.965Z,20.12
2023-03-29T10:42:01.130Z,19.26
2023-03-29T10:47:17.068Z,18.16
2023-03-29T10:52:23.290Z,19.60
2023-03-29T10:57:35.411Z,19.95
2023-03-29T11:03:11.996Z,19.50
2023-03-29T11:08:43.546Z,18.79
2023-03-29T11:13:58.036Z,18.96
2023-03-29T11:19:20.926Z,19.29
2023-03-29T11:24:58.830Z,18.59
2023-03-29T11:30:10.142Z,19.56
2023-03-29T11:35:31.676Z,18.86
2023-03-29T11:40:47.444Z,19.46
2023-03-29T11:45:57.413Z,17.80
2023-03-29T11:51:11.654Z,17.82
2023-03-29T11:56:26.299Z,18.79
2023-03-29T12:01:37.978Z,17.14
2023-03-29T12:06:48.160Z,17.61
2023-03-29T12:11:58.510Z,18.51
2023-03-29T12:17:07.740Z,17.59
2023-03-29T12:22:14.203Z,16.48
2023-03-29T12:27:29.203Z,17.24
2023-03-29T12:32:50.562Z,17.91
2023-03-29T12:38:25.030Z,17.21
2023-03-29T12:43:48.257Z,18.11
2023-03-29T12:49:22.036Z,17.76
2023-03-29T12:54:30.833Z,17.24
2023-03-29T12:59:52.384Z,17.75
2023-03-29T13:05:01.201Z,16.52
2023-03-29T13:15:39.080Z,17.16
2023-03-29T13:20:55.242Z,17.23
2023-03-29T13:26:23.880Z,17.77
2023-03-29T13:31:37.481Z,17.62
2023-03-29T13:36:59.801Z,16.18
2023-03-29T13:42:19.079Z,17.01
2023-03-29T13:47:43.157Z,17.10
2023-03-29T13:53:02.576Z,17.18
2023-03-29T13:58:13.677Z,17.59
2023-03-29T14:03:26.414Z,16.56
2023-03-29T14:08:38.124Z,16.47
2023-03-29T14:13:42.358Z,17.00
2023-03-29T14:18:51.168Z,17.08
2023-03-29T14:23:59.725Z,17.13
2023-03-29T14:29:04.537Z,15.74
2023-03-29T14:34:18.786Z,16.11
2023-03-29T14:39:26.151Z,16.39
2023-03-29T14:44:33.605Z,16.39
2023-03-29T14:49:39.088Z,16.36
2023-03-29T14:54:50.431Z,16.99
2023-03-29T14:59:59.567Z,16.54
2023-03-29T15:05:08.006Z,17.06
2023-03-29T15:10:20.804Z,17.44
2023-03-29T15:20:55.653Z,17.15
2023-03-29T15:26:11.122Z,15.89
2023-03-29T15:31:17.971Z,15.99
2023-03-29T15:36:22.223Z,16.15
2023-03-29T15:41:28.713Z,16.35
2023-03-29T15:46:33.607Z,16.99
2023-03-29T15:51:37.946Z,17.40
2023-03-29T15:56:49.663Z,17.67
2023-03-29T16:01:54.633Z,17.85
2023-03-29T16:06:59.036Z,18.27
2023-03-29T16:12:04.919Z,18.40
2023-03-29T16:17:08.980Z,18.47
2023-03-29T16:22:13.311Z,19.00
2023-03-29T16:27:19.008Z,19.08
2023-03-29T16:32:23.138Z,19.19
2023-03-29T16:37:29.676Z,19.58
2023-03-29T16:42:35.173Z,19.85
2023-03-29T16:47:39.551Z,19.80
2023-03-29T16:52:44.007Z,19.89
2023-03-29T16:57:50.964Z,19.47
2023-03-29T17:02:56.142Z,19.51
2023-03-29T17:08:00.247Z,19.75
2023-03-29T17:13:05.757Z,19.98
2023-03-29T17:18:10.372Z,19.82
2023-03-29T17:23:15.954Z,20.09
2023-03-29T17:28:22.413Z,20.29
2023-03-29T17:33:28.237Z,20.64
2023-03-29T17:38:34.402Z,20.91
2023-03-29T17:43:40.038Z,21.71
2023-03-29T17:48:44.061Z,21.75
2023-03-29T17:53:49.156Z,21.81
2023-03-29T17:58:56.173Z,22.60
2023-03-29T18:04:00.407Z,22.77
2023-03-29T18:09:04.761Z,22.59
2023-03-29T18:14:10.307Z,23.18
2023-03-29T18:19:14.602Z,23.25
2023-03-29T18:24:19.581Z,24.29
2023-03-29T18:29:25.173Z,24.46
2023-03-29T18:34:29.890Z,24.87
2023-03-29T18:39:35.927Z,25.15
2023-03-29T18:44:42.440Z,25.52
2023-03-29T18:49:47.359Z,26.36
2023-03-29T18:54:51.586Z,26.17
2023-03-29T18:59:57.139Z,27.43
2023-03-29T19:05:01.546Z,28.28
2023-03-29T19:10:07.523Z,28.26
2023-03-29T19:15:14.600Z,29.14
2023-03-29T19:20:20.077Z,30.17
2023-03-29T19:25:24.247Z,30.54
2023-03-29T19:30:30.945Z,32.10
2023-03-29T19:35:36.464Z,31.24
2023-03-29T19:40:47.151Z,30.31
2023-03-29T19:45:54.496Z,31.75
2023-03-29T19:51:05.357Z,33.24
2023-03-29T19:56:14.552Z,34.12
2023-03-29T20:01:22.088Z,35.34
2023-03-29T20:06:26.376Z,34.88
2023-03-29T20:11:30.599Z,33.49
2023-03-29T20:16:36.851Z,34.27
2023-03-29T20:21:41.070Z,33.81
2023-03-29T20:26:45.185Z,34.48
2023-03-29T20:31:50.743Z,33.63
2023-03-29T20:36:55.697Z,35.51
2023-03-29T20:42:00.604Z,35.93
2023-03-29T20:47:08.360Z,36.49
2023-03-29T20:52:15.548Z,37.02
2023-03-29T20:57:22.020Z,37.32
2023-03-29T21:02:27.868Z,36.94
2023-03-29T21:07:32.453Z,37.91
2023-03-29T21:13:00.511Z,38.37
2023-03-29T21:18:07.156Z,39.63
2023-03-29T21:23:11.337Z,38.81
2023-03-29T21:28:15.676Z,39.08
2023-03-29T21:33:21.863Z,38.06
2023-03-29T21:38:26.035Z,39.83
2023-03-29T21:43:30.387Z,39.74
2023-03-29T21:54:03.862Z,40.77
2023-03-29T21:59:08.162Z,40.41
2023-03-29T22:04:19.805Z,40.56
2023-03-29T22:09:29.774Z,41.43
2023-03-29T22:14:35.282Z,41.39
2023-03-29T22:19:41.916Z,42.53
2023-03-29T22:24:46.227Z,43.87
2023-03-29T22:29:50.398Z,43.07
2023-03-29T22:34:55.980Z,42.37
2023-03-29T22:40:01.123Z,44.00
2023-03-29T22:45:06.523Z,43.60
2023-03-29T22:50:12.730Z,44.38
2023-03-29T22:55:19.386Z,43.56
2023-03-29T23:00:23.865Z,44.38
2023-03-29T23:05:29.249Z,45.63
2023-03-29T23:10:33.348Z,45.45
2023-03-29T23:15:38.664Z,45.46
2023-03-29T23:20:44.422Z,46.30
2023-03-29T23:25:50.534Z,47.51
2023-03-29T23:31:03.218Z,48.22
2023-03-29T23:36:11.370Z,48.58
2023-03-29T23:41:19.302Z,47.75
2023-03-29T23:46:23.267Z,48.10
2023-03-29T23:51:29.442Z,47.21
2023-03-29T23:56:33.504Z,46.84
